createdAt,value
2022-10-12T00:00:20.245Z,69.20
2022-10-12T00:02:46.801Z,68.60
2022-10-12T00:05:13.337Z,68.60
2022-10-12T00:07:40.351Z,67.70
2022-10-12T00:10:07.335Z,68.10
2022-10-12T00:12:34.117Z,69.10
2022-10-12T00:15:00.705Z,68.30
2022-10-12T00:17:27.232Z,69.60
2022-10-12T00:19:53.822Z,71.00
2022-10-12T00:22:20.325Z,71.10
2022-10-12T00:24:46.969Z,71.00
2022-10-12T00:27:13.636Z,71.10
2022-10-12T00:29:40.330Z,70.30
2022-10-12T00:32:06.930Z,70.90
2022-10-12T00:34:33.492Z,71.00
2022-10-12T00:37:00.071Z,71.00
2022-10-12T00:39:26.576Z,70.90
2022-10-12T00:41:53.114Z,70.90
2022-10-12T00:44:39.929Z,70.90
2022-10-12T00:47:09.821Z,70.90
2022-10-12T00:49:36.991Z,70.90
2022-10-12T00:52:06.653Z,70.90
2022-10-12T00:54:37.133Z,70.90
2022-10-12T00:57:04.959Z,71.40
2022-10-12T00:59:37.525Z,72.40
2022-10-12T01:02:04.044Z,72.40
2022-10-12T01:04:31.828Z,72.20
2022-10-12T01:06:58.887Z,72.60
2022-10-12T01:09:25.934Z,73.00
2022-10-12T01:11:52.467Z,73.00
2022-10-12T01:14:19.216Z,73.20
2022-10-12T01:16:53.511Z,73.60
2022-10-12T01:19:38.469Z,72.90
2022-10-12T01:22:07.057Z,72.80
2022-10-12T01:24:41.538Z,72.60
2022-10-12T01:27:15.840Z,71.70
2022-10-12T01:30:02.180Z,71.80
2022-10-12T01:32:28.688Z,71.80
2022-10-12T01:35:04.061Z,72.00
2022-10-12T01:37:30.596Z,71.70
2022-10-12T01:39:58.291Z,71.90
2022-10-12T01:42:29.758Z,72.20
2022-10-12T01:45:22.695Z,72.40
2022-10-12T01:47:52.397Z,72.20
2022-10-12T01:53:19.485Z,72.70
2022-10-12T01:55:51.288Z,74.70
2022-10-12T01:58:44.305Z,76.00
2022-10-12T02:01:21.388Z,75.90
2022-10-12T02:03:47.985Z,76.10
2022-10-12T02:06:22.710Z,76.40
2022-10-12T02:08:49.200Z,76.00
2022-10-12T02:11:17.168Z,76.80
2022-10-12T02:13:54.562Z,77.20
2022-10-12T02:16:25.664Z,76.50
2022-10-12T02:18:54.380Z,76.10
2022-10-12T02:21:22.987Z,75.50
2022-10-12T02:23:50.774Z,75.70
2022-10-12T02:26:17.721Z,76.60
2022-10-12T02:28:45.026Z,77.50
2022-10-12T02:31:11.782Z,78.30
2022-10-12T02:33:56.751Z,78.30
2022-10-12T02:36:33.351Z,77.90
2022-10-12T02:39:02.035Z,77.90
2022-10-12T02:41:30.741Z,76.50
2022-10-12T02:44:01.624Z,76.30
2022-10-12T02:46:29.037Z,76.40
2022-10-12T02:48:56.863Z,75.70
2022-10-12T02:51:23.530Z,75.90
2022-10-12T02:53:50.304Z,75.50
2022-10-12T02:56:16.823Z,74.90
2022-10-12T02:58:44.175Z,74.90
2022-10-12T03:01:11.013Z,74.40
2022-10-12T03:03:37.585Z,73.40
2022-10-12T03:06:04.505Z,72.80
2022-10-12T03:08:31.137Z,73.60
2022-10-12T03:11:01.434Z,74.20
2022-10-12T03:13:28.057Z,74.90
2022-10-12T03:15:54.571Z,74.80
2022-10-12T03:18:21.076Z,74.70
2022-10-12T03:20:48.069Z,73.50
2022-10-12T03:23:14.567Z,73.90
2022-10-12T03:25:41.706Z,74.10
2022-10-12T03:28:08.219Z,74.10
2022-10-12T03:30:34.745Z,74.80
2022-10-12T03:33:01.264Z,74.80
2022-10-12T03:35:27.787Z,75.70
2022-10-12T03:37:54.317Z,77.50
2022-10-12T03:40:20.954Z,77.50
2022-10-12T03:42:47.521Z,77.10
2022-10-12T03:45:14.061Z,76.50
2022-10-12T03:47:40.943Z,75.90
2022-10-12T03:50:08.166Z,75.10
2022-10-12T03:52:34.677Z,74.90
2022-10-12T03:55:01.315Z,76.10
2022-10-12T03:57:27.945Z,75.80
2022-10-12T03:59:54.503Z,76.20
2022-10-12T04:02:21.111Z,75.50
2022-10-12T04:04:47.648Z,76.70
2022-10-12T04:07:14.232Z,76.70
2022-10-12T04:09:40.803Z,77.20
2022-10-12T04:12:07.477Z,78.60
2022-10-12T04:14:34.020Z,78.00
2022-10-12T04:17:00.537Z,78.00
2022-10-12T04:19:27.058Z,78.00
2022-10-12T04:21:53.633Z,77.50
2022-10-12T04:24:20.189Z,77.50
2022-10-12T04:26:46.753Z,76.70
2022-10-12T04:29:13.914Z,76.70
2022-10-12T04:31:40.922Z,76.70
2022-10-12T04:34:08.700Z,76.50
2022-10-12T04:36:35.537Z,76.10
2022-10-12T04:39:02.108Z,76.20
2022-10-12T04:41:28.910Z,75.90
2022-10-12T04:43:55.560Z,75.70
2022-10-12T04:46:22.203Z,76.30
2022-10-12T04:48:48.759Z,77.80
2022-10-12T04:51:15.357Z,77.70
2022-10-12T04:53:41.917Z,77.70
2022-10-12T04:56:08.820Z,77.70
2022-10-12T04:58:35.399Z,77.70
2022-10-12T05:01:02.084Z,77.70
2022-10-12T05:03:28.677Z,78.20
2022-10-12T05:05:55.227Z,78.60
2022-10-12T05:08:21.909Z,79.20
2022-10-12T05:10:48.645Z,78.60
2022-10-12T05:13:15.415Z,79.50
2022-10-12T05:15:42.731Z,81.60
2022-10-12T05:18:09.431Z,82.80
2022-10-12T05:20:36.018Z,84.70
2022-10-12T05:23:02.614Z,86.00
2022-10-12T05:25:29.606Z,86.10
2022-10-12T05:27:56.446Z,86.10
2022-10-12T05:30:23.125Z,87.40
2022-10-12T05:32:49.738Z,88.40
2022-10-12T05:35:16.238Z,88.60
2022-10-12T05:37:42.738Z,89.80
2022-10-12T05:40:09.521Z,90.10
2022-10-12T05:42:36.390Z,90.40
2022-10-12T05:47:54.124Z,90.60
2022-10-12T05:50:21.342Z,90.70
2022-10-12T05:52:48.078Z,90.80
2022-10-12T05:55:14.678Z,90.40
2022-10-12T05:57:41.172Z,90.40
2022-10-12T06:00:08.676Z,90.40
2022-10-12T06:02:35.691Z,90.40
2022-10-12T06:05:02.669Z,90.40
2022-10-12T06:07:29.221Z,90.50
2022-10-12T06:09:55.782Z,90.30
2022-10-12T06:12:23.982Z,90.30
2022-10-12T06:14:50.545Z,90.20
2022-10-12T06:17:17.055Z,90.00
2022-10-12T06:19:43.589Z,89.90
2022-10-12T06:22:10.169Z,89.60
2022-10-12T06:24:37.407Z,88.40
2022-10-12T06:27:04.482Z,87.80
2022-10-12T06:29:31.230Z,86.10
2022-10-12T06:31:58.142Z,86.20
2022-10-12T06:34:24.668Z,86.20
2022-10-12T06:36:51.205Z,85.40
2022-10-12T06:39:17.721Z,83.70
2022-10-12T06:41:44.267Z,82.30
2022-10-12T06:44:10.801Z,79.30
2022-10-12T06:46:37.304Z,79.80
2022-10-12T06:49:03.843Z,79.40
2022-10-12T06:51:30.462Z,78.30
2022-10-12T06:53:56.988Z,78.00
2022-10-12T06:56:23.542Z,78.30
2022-10-12T06:58:56.320Z,78.40
2022-10-12T07:01:22.965Z,78.50
2022-10-12T07:03:49.652Z,77.30
2022-10-12T07:06:16.256Z,74.60
2022-10-12T07:08:42.811Z,73.30
2022-10-12T07:11:11.097Z,72.30
2022-10-12T07:13:37.669Z,71.80
2022-10-12T07:16:04.557Z,70.40
2022-10-12T07:18:31.424Z,70.40
2022-10-12T07:21:02.401Z,70.60
2022-10-12T07:23:32.410Z,70.60
2022-10-12T07:25:59.084Z,67.40
2022-10-12T07:28:26.047Z,66.70
2022-10-12T07:33:42.824Z,64.90
2022-10-12T07:36:21.247Z,64.90
2022-10-12T07:38:48.887Z,62.50
2022-10-12T07:41:15.769Z,59.10
2022-10-12T07:43:43.052Z,53.10
2022-10-12T07:46:10.041Z,45.90
2022-10-12T07:48:37.739Z,40.20
2022-10-12T07:51:08.298Z,33.40
2022-10-12T07:53:35.433Z,30.70
2022-10-12T07:56:02.611Z,27.80
2022-10-12T07:58:29.196Z,23.50
2022-10-12T08:00:55.709Z,21.20
2022-10-12T08:03:22.248Z,22.40
2022-10-12T08:05:48.741Z,22.90
2022-10-12T08:08:15.378Z,22.30
2022-10-12T08:10:41.892Z,20.40
2022-10-12T08:13:08.402Z,16.10
2022-10-12T08:15:34.905Z,12.70
2022-10-12T08:18:01.429Z,4.40
2022-10-12T08:20:27.952Z,1.70
2022-10-12T08:22:54.901Z,1.00
2022-10-12T08:25:21.412Z,1.00
2022-10-12T08:27:48.031Z,1.00
2022-10-12T08:30:14.569Z,1.00
2022-10-12T08:32:41.171Z,1.00
2022-10-12T08:35:07.755Z,1.00
2022-10-12T08:37:34.303Z,1.00
2022-10-12T08:40:03.363Z,1.00
2022-10-12T08:42:39.671Z,1.00
2022-10-12T08:45:18.200Z,1.00
2022-10-12T08:47:51.505Z,1.00
2022-10-12T08:50:38.315Z,1.00
2022-10-12T08:53:06.925Z,1.00
2022-10-12T08:55:39.447Z,1.00
2022-10-12T08:58:10.696Z,1.00
2022-10-12T09:00:38.727Z,1.00
2022-10-12T09:03:14.327Z,1.00
2022-10-12T09:05:44.105Z,1.00
2022-10-12T09:08:14.918Z,1.00
2022-10-12T09:10:46.432Z,1.00
2022-10-12T09:13:37.029Z,1.00
2022-10-12T09:16:06.003Z,1.00
2022-10-12T09:18:34.931Z,1.00
2022-10-12T09:21:06.216Z,1.00
2022-10-12T09:23:39.879Z,1.00
2022-10-12T09:26:17.821Z,1.00
2022-10-12T09:28:54.577Z,1.00
2022-10-12T09:31:30.568Z,1.00
2022-10-12T09:33:58.225Z,1.00
2022-10-12T09:36:26.534Z,1.00
2022-10-12T09:38:53.382Z,1.00
2022-10-12T09:41:24.012Z,1.00
2022-10-12T09:43:52.266Z,1.00
2022-10-12T09:46:22.986Z,1.00
2022-10-12T09:48:56.510Z,1.00
2022-10-12T09:51:23.226Z,1.00
2022-10-12T09:53:54.116Z,1.00
2022-10-12T09:56:29.684Z,1.00
2022-10-12T09:58:58.567Z,1.00
2022-10-12T10:01:26.659Z,1.00
2022-10-12T10:04:10.162Z,1.00
2022-10-12T10:06:38.115Z,1.00
2022-10-12T10:09:04.772Z,1.00
2022-10-12T10:11:31.611Z,1.00
2022-10-12T10:13:59.046Z,1.00
2022-10-12T10:16:26.326Z,1.00
2022-10-12T10:18:52.812Z,1.00
2022-10-12T10:21:27.621Z,1.00
2022-10-12T10:23:55.802Z,1.00
2022-10-12T10:26:24.180Z,1.00
2022-10-12T10:28:56.289Z,1.00
2022-10-12T10:31:27.408Z,1.00
2022-10-12T10:34:09.576Z,1.00
2022-10-12T10:36:47.038Z,1.00
2022-10-12T10:39:24.877Z,1.00
2022-10-12T10:41:53.245Z,1.00
2022-10-12T10:44:24.994Z,1.00
2022-10-12T10:46:52.129Z,1.00
2022-10-12T10:49:28.359Z,1.00
2022-10-12T10:51:57.870Z,1.00
2022-10-12T10:54:24.515Z,1.00
2022-10-12T10:56:52.697Z,1.00
2022-10-12T10:59:25.069Z,1.00
2022-10-12T11:01:55.889Z,1.00
2022-10-12T11:04:24.368Z,1.00
2022-10-12T11:06:53.566Z,1.00
2022-10-12T11:09:21.594Z,1.00
2022-10-12T11:11:51.639Z,1.00
2022-10-12T11:14:19.472Z,1.00
2022-10-12T11:16:48.988Z,1.00
2022-10-12T11:19:19.621Z,1.00
2022-10-12T11:21:50.877Z,1.00
2022-10-12T11:24:20.501Z,1.00
2022-10-12T11:26:53.368Z,1.00
2022-10-12T11:29:20.035Z,1.00
2022-10-12T11:31:56.952Z,1.00
2022-10-12T11:34:24.121Z,1.00
2022-10-12T11:37:17.716Z,1.00
2022-10-12T11:39:42.557Z,1.00
2022-10-12T11:42:22.157Z,1.00
2022-10-12T11:44:49.800Z,1.00
2022-10-12T11:47:20.670Z,1.00
2022-10-12T11:49:50.174Z,1.00
2022-10-12T11:52:17.591Z,1.00
2022-10-12T11:54:49.495Z,1.00
2022-10-12T11:57:25.918Z,1.00
2022-10-12T12:00:01.414Z,1.00
2022-10-12T12:02:38.647Z,1.00
2022-10-12T12:05:06.777Z,1.00
2022-10-12T12:07:45.657Z,1.00
2022-10-12T12:10:34.793Z,1.00
2022-10-12T12:13:11.104Z,1.00
2022-10-12T12:15:38.457Z,1.00
2022-10-12T12:18:11.684Z,1.00
2022-10-12T12:20:44.635Z,1.00
2022-10-12T12:23:21.530Z,1.00
2022-10-12T12:26:03.880Z,1.00
2022-10-12T12:28:31.432Z,1.00
2022-10-12T12:31:18.268Z,1.00
2022-10-12T12:33:47.068Z,1.00
2022-10-12T12:36:28.063Z,1.00
2022-10-12T12:38:54.765Z,1.00
2022-10-12T12:41:22.489Z,1.00
2022-10-12T12:43:48.981Z,1.00
2022-10-12T12:46:16.115Z,1.00
2022-10-12T12:48:42.718Z,1.00
2022-10-12T12:51:18.633Z,1.00
2022-10-12T12:53:48.135Z,1.00
2022-10-12T12:56:23.893Z,1.00
2022-10-12T12:58:55.460Z,1.00
2022-10-12T13:01:38.696Z,1.00
2022-10-12T13:04:11.452Z,1.00
2022-10-12T13:06:40.945Z,1.00
2022-10-12T13:09:23.591Z,1.00
2022-10-12T13:11:58.806Z,1.00
2022-10-12T13:14:31.112Z,1.00
2022-10-12T13:17:31.791Z,1.00
2022-10-12T13:19:56.562Z,1.00
2022-10-12T13:22:28.009Z,1.00
2022-10-12T13:24:58.488Z,1.00
2022-10-12T13:27:34.205Z,1.00
2022-10-12T13:30:08.223Z,1.00
2022-10-12T13:32:44.691Z,1.00
2022-10-12T13:35:25.791Z,1.00
2022-10-12T13:38:06.026Z,1.00
2022-10-12T13:40:40.433Z,1.00
2022-10-12T13:43:22.399Z,1.00
2022-10-12T13:45:48.969Z,1.00
2022-10-12T13:48:39.790Z,1.00
2022-10-12T13:51:20.204Z,1.00
2022-10-12T13:53:46.751Z,1.00
2022-10-12T13:56:15.439Z,1.00
2022-10-12T13:58:42.105Z,1.00
2022-10-12T14:01:10.855Z,1.00
2022-10-12T14:03:39.128Z,1.00
2022-10-12T14:06:06.502Z,1.00
2022-10-12T14:08:35.131Z,1.00
2022-10-12T14:11:02.183Z,1.00
2022-10-12T14:13:32.666Z,1.00
2022-10-12T14:16:00.240Z,1.00
2022-10-12T14:18:38.820Z,1.00
2022-10-12T14:21:17.437Z,1.00
2022-10-12T14:23:45.500Z,1.00
2022-10-12T14:26:21.190Z,1.00
2022-10-12T14:28:47.874Z,1.00
2022-10-12T14:31:14.437Z,1.00
2022-10-12T14:33:41.007Z,1.00
2022-10-12T14:36:15.673Z,1.00
2022-10-12T14:38:42.190Z,1.00
2022-10-12T14:41:27.626Z,1.00
2022-10-12T14:44:05.298Z,1.00
2022-10-12T14:46:35.632Z,1.00
2022-10-12T14:49:02.291Z,1.00
2022-10-12T14:51:28.986Z,1.00
2022-10-12T14:54:02.745Z,1.00
2022-10-12T14:56:29.342Z,1.00
2022-10-12T14:58:55.951Z,1.00
2022-10-12T15:01:23.069Z,1.00
2022-10-12T15:03:49.666Z,1.00
2022-10-12T15:06:16.672Z,1.00
2022-10-12T15:08:43.671Z,1.00
2022-10-12T15:11:11.602Z,1.00
2022-10-12T15:13:38.406Z,1.00
2022-10-12T15:16:10.253Z,1.00
2022-10-12T15:18:36.757Z,1.00
2022-10-12T15:21:04.783Z,1.00
2022-10-12T15:23:31.594Z,1.00
2022-10-12T15:26:00.296Z,1.00
2022-10-12T15:28:29.768Z,1.00
2022-10-12T15:31:17.600Z,2.30
2022-10-12T15:33:43.481Z,2.80
2022-10-12T15:36:10.046Z,3.50
2022-10-12T15:38:36.598Z,6.10
2022-10-12T15:41:03.477Z,7.30
2022-10-12T15:43:31.317Z,8.80
2022-10-12T15:45:58.813Z,10.80
2022-10-12T15:48:27.710Z,11.90
2022-10-12T15:50:54.438Z,12.40
2022-10-12T15:53:24.764Z,11.80
2022-10-12T15:55:52.283Z,13.90
2022-10-12T15:58:18.827Z,16.30
2022-10-12T16:00:45.412Z,16.20
2022-10-12T16:03:17.437Z,18.30
2022-10-12T16:05:46.231Z,19.50
2022-10-12T16:08:12.960Z,20.50
2022-10-12T16:10:40.469Z,20.50
2022-10-12T16:13:07.975Z,22.70
2022-10-12T16:15:35.617Z,23.50
2022-10-12T16:18:03.111Z,24.90
2022-10-12T16:20:31.133Z,24.80
2022-10-12T16:22:58.209Z,25.60
2022-10-12T16:25:25.156Z,27.50
2022-10-12T16:27:52.365Z,28.20
2022-10-12T16:30:19.387Z,29.80
2022-10-12T16:32:45.963Z,31.60
2022-10-12T16:35:14.774Z,32.10
2022-10-12T16:37:41.363Z,33.60
2022-10-12T16:40:08.443Z,33.90
2022-10-12T16:42:35.513Z,33.80
2022-10-12T16:45:02.171Z,35.50
2022-10-12T16:47:28.734Z,36.00
2022-10-12T16:49:55.625Z,38.30
2022-10-12T16:52:25.454Z,39.20
2022-10-12T16:54:52.587Z,41.00
2022-10-12T16:57:19.273Z,41.90
2022-10-12T16:59:46.318Z,44.60
2022-10-12T17:02:13.573Z,44.40
2022-10-12T17:04:40.266Z,44.30
2022-10-12T17:07:06.850Z,44.20
2022-10-12T17:09:33.468Z,45.10
2022-10-12T17:12:00.007Z,46.80
2022-10-12T17:14:26.632Z,48.60
2022-10-12T17:16:57.030Z,50.10
2022-10-12T17:19:31.811Z,51.70
2022-10-12T17:21:59.427Z,52.60
2022-10-12T17:24:28.178Z,54.40
2022-10-12T17:26:54.754Z,54.50
2022-10-12T17:29:21.826Z,55.90
2022-10-12T17:31:48.964Z,55.80
2022-10-12T17:34:22.823Z,54.30
2022-10-12T17:36:49.664Z,55.10
2022-10-12T17:39:16.205Z,56.10
2022-10-12T17:41:43.270Z,57.00
2022-10-12T17:44:11.283Z,58.70
2022-10-12T17:46:41.540Z,59.80
2022-10-12T17:49:11.090Z,60.10
2022-10-12T17:51:37.668Z,59.80
2022-10-12T17:54:04.513Z,60.90
2022-10-12T17:56:31.255Z,62.30
2022-10-12T17:58:58.666Z,63.50
2022-10-12T18:01:25.867Z,63.50
2022-10-12T18:03:55.173Z,63.50
2022-10-12T18:06:23.120Z,65.20
2022-10-12T18:08:50.253Z,66.00
2022-10-12T18:11:17.669Z,65.80
2022-10-12T18:13:45.463Z,64.40
2022-10-12T18:16:12.084Z,63.90
2022-10-12T18:18:39.166Z,65.00
2022-10-12T18:21:06.888Z,65.00
2022-10-12T18:23:33.440Z,66.30
2022-10-12T18:26:07.074Z,66.70
2022-10-12T18:28:34.613Z,67.50
2022-10-12T18:31:01.368Z,68.70
2022-10-12T18:33:28.350Z,69.60
2022-10-12T18:35:54.859Z,70.00
2022-10-12T18:38:21.599Z,71.40
2022-10-12T18:40:48.237Z,71.70
2022-10-12T18:43:15.217Z,71.70
2022-10-12T18:45:45.135Z,71.70
2022-10-12T18:48:12.797Z,72.30
2022-10-12T18:50:39.612Z,71.70
2022-10-12T18:53:06.393Z,71.70
2022-10-12T18:55:36.139Z,71.60
2022-10-12T18:58:02.692Z,71.60
2022-10-12T19:00:29.486Z,71.50
2022-10-12T19:02:56.473Z,71.50
2022-10-12T19:05:23.667Z,71.40
2022-10-12T19:07:50.649Z,70.70
2022-10-12T19:10:17.227Z,71.40
2022-10-12T19:12:45.854Z,71.40
2022-10-12T19:15:12.683Z,74.40
2022-10-12T19:17:39.205Z,77.70
2022-10-12T19:20:06.161Z,79.00
2022-10-12T19:22:33.385Z,79.90
2022-10-12T19:24:59.914Z,80.00
2022-10-12T19:27:26.762Z,79.90
2022-10-12T19:29:53.267Z,79.90
2022-10-12T19:32:20.317Z,79.90
2022-10-12T19:34:49.862Z,79.90
2022-10-12T19:37:16.382Z,79.90
2022-10-12T19:39:44.927Z,79.90
2022-10-12T19:42:11.450Z,79.90
2022-10-12T19:44:37.996Z,79.60
2022-10-12T19:47:04.556Z,78.90
2022-10-12T19:49:35.752Z,77.20
2022-10-12T19:52:03.940Z,77.00
2022-10-12T19:54:34.106Z,76.60
2022-10-12T19:57:02.553Z,77.90
2022-10-12T19:59:29.071Z,79.60
2022-10-12T20:01:55.692Z,79.70
2022-10-12T20:04:22.366Z,80.20
2022-10-12T20:06:48.867Z,79.70
2022-10-12T20:09:15.426Z,79.70
2022-10-12T20:11:42.197Z,79.70
2022-10-12T20:14:09.764Z,80.70
2022-10-12T20:16:37.120Z,81.80
2022-10-12T20:19:04.625Z,82.10
2022-10-12T20:21:31.196Z,82.70
2022-10-12T20:23:57.756Z,82.80
2022-10-12T20:26:25.711Z,83.80
2022-10-12T20:28:53.146Z,83.80
2022-10-12T20:31:23.143Z,83.70
2022-10-12T20:33:51.764Z,83.20
2022-10-12T20:36:25.866Z,83.50
2022-10-12T20:38:52.553Z,83.50
2022-10-12T20:41:24.973Z,83.90
2022-10-12T20:43:55.373Z,83.90
2022-10-12T20:46:21.879Z,83.60
2022-10-12T20:48:48.454Z,84.30
2022-10-12T20:51:25.871Z,84.70
2022-10-12T20:53:52.537Z,85.00
2022-10-12T20:56:19.532Z,85.30
2022-10-12T20:58:46.301Z,85.70
2022-10-12T21:01:14.096Z,85.80
2022-10-12T21:03:41.135Z,86.50
2022-10-12T21:06:08.880Z,86.70
2022-10-12T21:08:35.628Z,87.30
2022-10-12T21:11:02.828Z,87.60
2022-10-12T21:13:29.918Z,87.00
2022-10-12T21:15:56.497Z,86.90
2022-10-12T21:18:23.188Z,86.20
2022-10-12T21:20:53.595Z,86.30
2022-10-12T21:23:20.147Z,86.20
2022-10-12T21:25:46.655Z,84.70
2022-10-12T21:28:13.490Z,84.60
2022-10-12T21:30:40.541Z,84.40
2022-10-12T21:33:07.785Z,84.00
2022-10-12T21:35:34.675Z,83.10
2022-10-12T21:38:01.579Z,83.50
2022-10-12T21:40:28.090Z,83.80
2022-10-12T21:42:54.630Z,83.00
2022-10-12T21:45:21.142Z,82.40
2022-10-12T21:47:48.004Z,82.70
2022-10-12T21:50:14.581Z,82.50
2022-10-12T21:52:41.126Z,83.20
2022-10-12T21:55:07.943Z,83.00
2022-10-12T21:57:34.412Z,81.80
2022-10-12T22:00:01.009Z,82.20
2022-10-12T22:02:27.527Z,81.00
2022-10-12T22:04:54.072Z,81.30
2022-10-12T22:07:20.636Z,80.60
2022-10-12T22:09:47.160Z,80.50
2022-10-12T22:12:13.680Z,80.50
2022-10-12T22:14:40.265Z,79.40
2022-10-12T22:17:06.825Z,79.40
2022-10-12T22:19:33.353Z,82.60
2022-10-12T22:21:59.871Z,82.00
2022-10-12T22:24:26.369Z,81.30
2022-10-12T22:26:52.908Z,81.40
2022-10-12T22:29:19.467Z,81.00
2022-10-12T22:31:46.369Z,80.30
2022-10-12T22:34:12.959Z,79.10
2022-10-12T22:36:39.523Z,79.00
2022-10-12T22:39:06.049Z,77.90
2022-10-12T22:41:32.624Z,77.80
2022-10-12T22:43:59.172Z,77.00
2022-10-12T22:46:25.828Z,78.90
2022-10-12T22:48:53.333Z,83.00
2022-10-12T22:51:28.561Z,85.80
2022-10-12T22:53:55.061Z,87.10
2022-10-12T22:56:21.606Z,87.10
2022-10-12T22:58:48.914Z,87.10
2022-10-12T23:01:16.978Z,87.10
2022-10-12T23:03:43.540Z,87.10
2022-10-12T23:06:11.110Z,87.10
2022-10-12T23:08:37.943Z,87.10
2022-10-12T23:11:05.852Z,87.00
2022-10-12T23:13:33.164Z,86.10
2022-10-12T23:16:06.860Z,86.00
2022-10-12T23:18:34.126Z,84.80
2022-10-12T23:21:03.459Z,85.70
2022-10-12T23:23:29.989Z,87.00
2022-10-12T23:26:03.919Z,85.20
2022-10-12T23:28:30.672Z,84.10
2022-10-12T23:30:57.247Z,84.00
2022-10-12T23:33:23.959Z,82.70
2022-10-12T23:36:00.640Z,82.60
2022-10-12T23:38:31.857Z,82.20
2022-10-12T23:40:58.666Z,81.10
2022-10-12T23:43:26.673Z,80.20
2022-10-12T23:45:53.877Z,78.50
2022-10-12T23:48:20.491Z,79.30
2022-10-12T23:50:47.038Z,79.90
2022-10-12T23:53:14.042Z,79.90
2022-10-12T23:55:40.566Z,80.10
2022-10-12T23:58:07.056Z,80.20
